Time;durP1;ratioP1;P1;durP2;ratioP2;P2;SDS_P1;SDS_P2;PMS_P1;PMS_P2;Temp;Humidity;BMP_temperature;BMP_pressure;BME280_temperature;BME280_humidity;BME280_pressure;Samples;Min_cycle;Max_cycle;Signal;HPM_P1;HPM_P2
2021/10/12 00:01:18;;;;;;;29.03;20.10;;;;;;;11.65;68.69;97351.41;5071955;28;20304;-66
2021/10/12 00:03:43;;;;;;;31.60;20.00;;;;;;;11.39;70.03;97355.81;5064074;28;20193;-66
2021/10/12 00:06:09;;;;;;;26.67;18.53;;;;;;;11.58;69.33;97355.59;5073065;28;20265;-65
2021/10/12 00:08:35;;;;;;;32.13;19.67;;;;;;;11.44;69.53;97350.91;5072699;28;20533;-64
2021/10/12 00:11:01;;;;;;;29.27;18.63;;;;;;;11.58;69.36;97345.09;5071353;28;20199;-66
2021/10/12 00:13:26;;;;;;;28.97;19.60;;;;;;;11.39;69.57;97345.34;5072678;28;20498;-65
2021/10/12 00:15:52;;;;;;;31.23;18.10;;;;;;;11.50;69.31;97343.25;5072612;28;20235;-65
2021/10/12 00:18:18;;;;;;;27.50;19.57;;;;;;;11.34;69.95;97345.78;5057113;28;20174;-65
2021/10/12 00:20:43;;;;;;;35.60;20.70;;;;;;;11.44;69.45;97343.88;5073952;28;20210;-65
2021/10/12 00:23:10;;;;;;;38.43;22.20;;;;;;;11.27;70.48;97342.13;5066651;28;20231;-65
2021/10/12 00:25:35;;;;;;;40.63;22.43;;;;;;;11.29;70.59;97345.41;5072163;28;20202;-66
2021/10/12 00:28:01;;;;;;;37.23;21.77;;;;;;;11.18;71.11;97343.84;5071643;28;20501;-64
2021/10/12 00:30:26;;;;;;;41.67;23.60;;;;;;;11.24;70.79;97342.41;5071432;28;20174;-64
2021/10/12 00:32:52;;;;;;;39.53;23.97;;;;;;;11.32;70.69;97332.00;5072392;28;20248;-65
2021/10/12 00:35:17;;;;;;;40.00;24.90;;;;;;;11.17;71.37;97340.41;5072265;28;20257;-66
2021/10/12 00:37:43;;;;;;;36.70;23.53;;;;;;;11.23;71.47;97333.75;5071479;28;20194;-63
2021/10/12 00:40:09;;;;;;;41.50;23.53;;;;;;;11.26;71.36;97327.34;5068346;28;20280;-65
2021/10/12 00:42:36;;;;;;;38.90;23.90;;;;;;;11.27;70.93;97331.63;5066057;28;20194;-65
2021/10/12 00:45:06;;;;;;;37.70;22.27;;;;;;;11.34;70.81;97327.44;5071609;28;20482;-65
2021/10/12 00:47:32;;;;;;;42.20;23.77;;;;;;;11.35;70.85;97318.56;5071535;28;20831;-65
2021/10/12 00:49:58;;;;;;;39.10;23.20;;;;;;;11.20;71.65;97324.38;5054144;28;20421;-65
2021/10/12 00:52:24;;;;;;;41.17;24.83;;;;;;;11.22;71.47;97325.03;5071257;28;20466;-65
2021/10/12 00:54:49;;;;;;;42.60;24.30;;;;;;;11.19;71.77;97329.75;5070280;28;20542;-67
2021/10/12 00:57:15;;;;;;;38.97;23.50;;;;;;;11.26;71.40;97322.09;5071074;28;20185;-66
2021/10/12 00:59:41;;;;;;;37.27;24.30;;;;;;;10.98;72.50;97323.06;5070416;28;20202;-66
2021/10/12 01:02:08;;;;;;;40.50;23.90;;;;;;;11.15;71.80;97321.38;5071177;28;20229;-68
2021/10/12 01:04:33;;;;;;;40.20;23.07;;;;;;;11.14;71.95;97324.16;5071408;28;20189;-67
2021/10/12 01:06:59;;;;;;;46.10;25.53;;;;;;;11.01;72.56;97321.94;5070915;28;20524;-67
2021/10/12 01:09:25;;;;;;;40.80;24.00;;;;;;;11.09;72.36;97316.72;5063447;28;20616;-67
2021/10/12 01:11:50;;;;;;;39.30;24.43;;;;;;;11.03;72.52;97312.13;5070805;28;20203;-67
2021/10/12 01:14:16;;;;;;;38.07;24.50;;;;;;;11.01;72.50;97316.69;5071142;28;20186;-67
2021/10/12 01:16:42;;;;;;;41.47;24.37;;;;;;;11.16;71.84;97320.41;5066628;28;20190;-67
2021/10/12 01:19:08;;;;;;;42.30;24.47;;;;;;;11.04;72.29;97321.63;5068629;28;20186;-66
2021/10/12 01:21:45;;;;;;;43.50;24.70;;;;;;;11.04;72.06;97311.94;5065457;28;20206;-67
2021/10/12 01:24:12;;;;;;;43.67;24.70;;;;;;;11.21;71.52;97318.13;5070583;28;20416;-67
2021/10/12 01:26:41;;;;;;;41.13;24.60;;;;;;;11.28;71.16;97307.84;5071296;28;20421;-67
2021/10/12 01:29:08;;;;;;;40.30;24.63;;;;;;;11.34;70.70;97303.81;5071089;28;20424;-67
2021/10/12 01:31:34;;;;;;;43.17;24.33;;;;;;;11.30;71.18;97297.22;5071119;28;20803;-66
2021/10/12 01:34:00;;;;;;;38.93;24.17;;;;;;;11.28;71.17;97288.66;5071833;28;20428;-66
2021/10/12 01:36:25;;;;;;;50.70;26.07;;;;;;;11.22;71.59;97293.53;5069722;28;20293;-67
2021/10/12 01:38:51;;;;;;;42.93;24.33;;;;;;;11.20;71.40;97292.91;5070573;28;20862;-67
2021/10/12 01:41:17;;;;;;;38.97;23.60;;;;;;;11.10;71.71;97297.41;5069504;28;20237;-66
2021/10/12 01:43:43;;;;;;;42.80;23.93;;;;;;;10.87;72.74;97284.78;5071424;28;20178;-68
2021/10/12 01:46:09;;;;;;;39.17;23.47;;;;;;;11.05;71.79;97281.31;5071071;28;20226;-67
2021/10/12 01:48:36;;;;;;;40.90;23.90;;;;;;;11.02;72.10;97269.34;5069625;28;20228;-66
2021/10/12 01:51:02;;;;;;;38.30;23.83;;;;;;;11.00;72.21;97281.78;5070523;28;20570;-67
2021/10/12 01:53:28;;;;;;;39.50;23.30;;;;;;;10.85;72.40;97265.75;5066819;28;20478;-65
2021/10/12 01:55:53;;;;;;;34.13;21.83;;;;;;;11.08;71.82;97265.28;5051255;28;20476;-66
2021/10/12 01:58:19;;;;;;;43.60;22.60;;;;;;;11.03;72.05;97263.09;5070487;28;20178;-66
2021/10/12 02:00:45;;;;;;;39.10;22.27;;;;;;;11.15;71.51;97261.06;5069262;28;20202;-67
2021/10/12 02:03:11;;;;;;;46.90;22.33;;;;;;;11.09;71.70;97258.22;5070632;28;20212;-67
2021/10/12 02:05:36;;;;;;;32.07;20.77;;;;;;;11.20;71.02;97261.44;5072339;28;20416;-66
2021/10/12 02:08:03;;;;;;;36.90;22.43;;;;;;;11.17;71.43;97263.50;5074008;28;20182;-67
2021/10/12 02:10:28;;;;;;;35.77;22.07;;;;;;;11.25;70.89;97262.75;5074122;28;20202;-67
2021/10/12 02:12:54;;;;;;;33.87;20.83;;;;;;;11.24;70.74;97253.22;5070628;28;20448;-68
2021/10/12 02:15:20;;;;;;;32.60;21.40;;;;;;;11.24;71.00;97259.31;5078950;28;20597;-66
2021/10/12 02:17:45;;;;;;;35.80;21.57;;;;;;;11.22;70.94;97256.00;5070606;28;20175;-66
2021/10/12 02:20:11;;;;;;;32.93;20.47;;;;;;;11.40;70.55;97250.69;5065419;28;20301;-67
2021/10/12 02:22:38;;;;;;;34.23;20.50;;;;;;;11.42;70.18;97240.88;5074391;28;20206;-67
2021/10/12 02:25:06;;;;;;;37.87;20.10;;;;;;;11.60;69.41;97230.28;5064164;28;20432;-67
2021/10/12 02:27:31;;;;;;;111.87;30.47;;;;;;;11.59;69.53;97214.69;5060358;28;20465;-66
2021/10/12 02:29:57;;;;;;;55.67;20.97;;;;;;;11.65;69.17;97208.81;5077237;28;20832;-67
2021/10/12 02:32:23;;;;;;;35.10;20.03;;;;;;;11.51;69.37;97218.91;5076854;28;20213;-67
2021/10/12 02:34:48;;;;;;;32.87;18.70;;;;;;;11.34;69.97;97227.72;5078164;28;20182;-65
2021/10/12 02:37:14;;;;;;;35.13;19.17;;;;;;;11.20;70.25;97229.09;5075430;28;20251;-67
2021/10/12 02:39:40;;;;;;;32.57;18.00;;;;;;;11.20;70.29;97227.31;5073523;28;20206;-66
2021/10/12 02:42:06;;;;;;;29.60;18.00;;;;;;;11.39;69.72;97220.19;5065271;28;20228;-68
2021/10/12 02:44:32;;;;;;;37.07;18.87;;;;;;;11.29;70.17;97222.09;5055579;28;20265;-68
2021/10/12 02:46:58;;;;;;;28.57;17.60;;;;;;;11.30;69.97;97221.13;5073369;28;20451;-66
2021/10/12 02:49:23;;;;;;;30.37;18.67;;;;;;;11.15;70.70;97207.78;5071099;28;20424;-68
2021/10/12 02:51:49;;;;;;;25.27;17.93;;;;;;;11.04;70.79;97211.47;5071811;28;20202;-66
2021/10/12 02:54:15;;;;;;;27.03;16.73;;;;;;;11.21;69.78;97205.31;5065289;28;20185;-66
2021/10/12 02:56:40;;;;;;;32.97;17.27;;;;;;;10.91;70.98;97199.59;5055746;28;20186;-67
2021/10/12 02:59:06;;;;;;;26.60;16.10;;;;;;;11.27;69.65;97189.94;5069767;28;20653;-67
2021/10/12 03:01:32;;;;;;;26.30;15.33;;;;;;;11.07;69.86;97191.00;5067663;28;20339;-67
2021/10/12 03:03:57;;;;;;;21.83;14.70;;;;;;;11.01;70.38;97185.56;5068893;28;20620;-67
2021/10/12 03:06:23;;;;;;;28.47;14.70;;;;;;;11.09;69.93;97175.09;5052878;28;20273;-67
2021/10/12 03:08:49;;;;;;;29.20;16.30;;;;;;;11.05;69.81;97184.28;5044957;28;20328;-64
2021/10/12 03:11:14;;;;;;;33.57;16.07;;;;;;;11.10;69.56;97183.81;5052603;28;20677;-68
2021/10/12 03:13:40;;;;;;;28.00;15.23;;;;;;;11.33;68.47;97169.16;5053011;28;20705;-68
2021/10/12 03:16:07;;;;;;;27.27;14.83;;;;;;;11.42;68.26;97175.25;5060815;28;20187;-67
2021/10/12 03:18:34;;;;;;;23.80;13.93;;;;;;;11.52;67.96;97167.28;5046342;28;20271;-66
2021/10/12 03:20:59;;;;;;;26.33;15.60;;;;;;;11.70;67.09;97159.28;5053745;28;20464;-66
2021/10/12 03:23:25;;;;;;;22.60;14.20;;;;;;;11.65;67.18;97151.06;5059716;28;20908;-67
2021/10/12 03:25:51;;;;;;;25.33;14.93;;;;;;;11.70;67.46;97148.78;5061121;28;20541;-66
2021/10/12 03:28:16;;;;;;;21.20;14.10;;;;;;;11.68;67.13;97141.03;5051601;28;20720;-67
2021/10/12 03:30:42;;;;;;;21.23;14.17;;;;;;;11.38;67.85;97139.81;5051341;28;20278;-67
2021/10/12 03:33:07;;;;;;;23.93;13.80;;;;;;;11.34;67.78;97135.88;5051240;28;20182;-67
2021/10/12 03:35:36;;;;;;;26.67;15.23;;;;;;;11.37;67.54;97125.06;5048506;28;20184;-67
2021/10/12 03:38:02;;;;;;;23.07;14.73;;;;;;;11.57;66.91;97122.97;5050587;28;20232;-67
2021/10/12 03:40:28;;;;;;;44.20;23.67;;;;;;;11.31;67.82;97133.56;5052319;28;20458;-66
2021/10/12 03:42:54;;;;;;;33.97;20.00;;;;;;;11.43;67.74;97141.97;5060366;28;20457;-67
2021/10/12 03:45:20;;;;;;;38.90;20.13;;;;;;;11.22;68.35;97146.63;5065205;28;20881;-67
2021/10/12 03:47:46;;;;;;;36.37;18.90;;;;;;;11.31;68.32;97144.06;5052240;28;20478;-67
2021/10/12 03:50:11;;;;;;;31.37;14.50;;;;;;;11.46;67.45;97146.91;5051876;28;20275;-66
2021/10/12 03:52:37;;;;;;;23.00;14.90;;;;;;;11.28;67.75;97147.00;5052399;28;20650;-65
2021/10/12 03:55:03;;;;;;;27.80;13.87;;;;;;;11.18;68.16;97145.31;5052036;28;20195;-66
2021/10/12 03:57:29;;;;;;;26.30;14.30;;;;;;;10.98;68.93;97154.41;5052309;28;20210;-66
2021/10/12 03:59:54;;;;;;;20.83;12.70;;;;;;;11.22;68.45;97157.13;5052123;28;20522;-66
2021/10/12 04:02:20;;;;;;;26.03;14.00;;;;;;;11.25;68.36;97147.31;5051881;28;20576;-67
2021/10/12 04:04:45;;;;;;;22.60;14.47;;;;;;;11.44;67.64;97143.59;5052261;28;20638;-65
2021/10/12 04:07:11;;;;;;;24.13;13.63;;;;;;;11.54;66.98;97139.03;5047675;28;20186;-65
2021/10/12 04:09:37;;;;;;;26.00;13.20;;;;;;;11.50;67.19;97141.16;5051937;28;20639;-67
2021/10/12 04:12:02;;;;;;;20.73;13.60;;;;;;;11.58;66.93;97131.69;5051544;28;20214;-66
2021/10/12 04:14:28;;;;;;;23.93;12.80;;;;;;;11.52;67.27;97144.47;5051775;28;20278;-67
2021/10/12 04:16:53;;;;;;;23.23;14.03;;;;;;;11.48;66.92;97151.00;5051284;28;20179;-67
2021/10/12 04:19:19;;;;;;;20.43;12.90;;;;;;;11.67;66.56;97142.03;5052049;28;20624;-66
2021/10/12 04:21:45;;;;;;;30.17;14.10;;;;;;;11.62;66.77;97143.50;5058334;28;20293;-67
2021/10/12 04:24:10;;;;;;;19.50;13.57;;;;;;;11.10;68.52;97142.66;5051774;28;20270;-66
2021/10/12 04:26:38;;;;;;;20.77;14.37;;;;;;;11.14;68.79;97144.00;5051453;28;20562;-66
2021/10/12 04:29:04;;;;;;;23.30;14.53;;;;;;;10.79;69.96;97151.03;5050967;28;20217;-66
2021/10/12 04:31:30;;;;;;;25.27;14.47;;;;;;;11.04;69.46;97138.84;5050776;28;20534;-66
2021/10/12 04:33:56;;;;;;;27.63;15.57;;;;;;;11.48;67.63;97127.38;5051327;28;20924;-67
2021/10/12 04:36:21;;;;;;;19.57;14.20;;;;;;;11.65;67.18;97128.25;5046921;28;20494;-67
2021/10/12 04:38:47;;;;;;;31.10;14.17;;;;;;;11.74;67.03;97128.28;5059225;28;20205;-68
2021/10/12 04:41:13;;;;;;;20.97;13.93;;;;;;;11.68;67.26;97132.38;5050868;28;20217;-67
2021/10/12 04:43:38;;;;;;;25.30;14.30;;;;;;;11.57;67.54;97135.28;5051241;28;20587;-66
2021/10/12 04:46:04;;;;;;;27.37;15.07;;;;;;;11.50;67.69;97122.78;5050830;28;20187;-66
2021/10/12 04:48:30;;;;;;;24.53;14.80;;;;;;;11.41;68.40;97125.53;5051289;28;20179;-67
2021/10/12 04:50:56;;;;;;;22.20;15.17;;;;;;;11.13;69.43;97125.81;5051180;28;20179;-67
2021/10/12 04:53:22;;;;;;;26.17;16.07;;;;;;;10.99;70.41;97124.56;5051785;28;20175;-67
2021/10/12 04:55:48;;;;;;;25.27;15.97;;;;;;;11.42;69.11;97125.41;5051708;28;20437;-67
2021/10/12 04:58:13;;;;;;;23.27;15.43;;;;;;;11.57;68.70;97119.53;5051045;28;20181;-68
2021/10/12 05:00:39;;;;;;;30.27;15.67;;;;;;;11.49;68.93;97118.53;5050860;28;20915;-67
2021/10/12 05:03:05;;;;;;;29.70;14.83;;;;;;;11.32;69.50;97122.09;5051276;28;20307;-67
2021/10/12 05:05:31;;;;;;;29.30;15.20;;;;;;;11.26;70.18;97114.84;5045977;28;20785;-66
2021/10/12 05:07:57;;;;;;;19.83;13.63;;;;;;;11.41;69.55;97118.50;5049627;28;20420;-66
2021/10/12 05:10:23;;;;;;;28.07;15.90;;;;;;;11.41;69.82;97113.25;5049785;28;20421;-66
2021/10/12 05:12:48;;;;;;;23.70;14.83;;;;;;;11.38;69.48;97108.31;5050586;28;20280;-64
2021/10/12 05:15:20;;;;;;;23.80;13.93;;;;;;;11.29;70.30;97101.41;5052264;28;20425;-68
2021/10/12 05:17:48;;;;;;;26.33;14.20;;;;;;;11.30;70.32;97110.94;5065598;28;20585;-66
2021/10/12 05:20:14;;;;;;;22.90;14.73;;;;;;;11.30;70.30;97113.56;5071436;28;20510;-68
2021/10/12 05:22:39;;;;;;;19.97;14.57;;;;;;;11.33;70.29;97102.75;5063884;28;20443;-67
2021/10/12 05:25:05;;;;;;;24.20;14.93;;;;;;;11.40;69.99;97106.38;5069850;28;20425;-66
2021/10/12 05:27:32;;;;;;;24.03;15.20;;;;;;;11.31;70.19;97107.34;5071064;28;20185;-66
2021/10/12 05:29:57;;;;;;;32.00;15.73;;;;;;;11.24;70.72;97111.56;5069418;28;20421;-67
2021/10/12 05:32:23;;;;;;;23.53;14.90;;;;;;;11.15;71.28;97114.16;5071018;28;20437;-66
2021/10/12 05:34:48;;;;;;;29.00;16.30;;;;;;;11.26;70.92;97109.59;5062643;28;20238;-65
2021/10/12 05:37:14;;;;;;;20.90;13.87;;;;;;;11.35;70.58;97103.41;5070617;28;20190;-66
2021/10/12 05:39:40;;;;;;;23.10;14.40;;;;;;;11.32;70.83;97103.72;5071473;28;20182;-66
2021/10/12 05:42:05;;;;;;;23.80;13.87;;;;;;;11.32;70.88;97103.72;5058187;28;20215;-67
2021/10/12 05:44:31;;;;;;;23.93;15.00;;;;;;;10.98;71.95;97100.16;5067415;28;20683;-66
2021/10/12 05:46:57;;;;;;;26.43;14.83;;;;;;;10.73;72.38;97104.44;5070583;28;20186;-67
2021/10/12 05:49:22;;;;;;;24.50;15.40;;;;;;;10.83;72.34;97105.19;5073632;28;20186;-67
2021/10/12 05:51:48;;;;;;;22.00;13.93;;;;;;;10.91;72.12;97110.47;5075018;28;20603;-68
2021/10/12 05:54:17;;;;;;;21.50;14.53;;;;;;;11.08;71.69;97107.91;5073658;28;20649;-67
2021/10/12 05:56:49;;;;;;;25.30;15.67;;;;;;;11.34;71.11;97107.03;5069388;28;20429;-67
2021/10/12 05:59:15;;;;;;;27.97;15.53;;;;;;;11.16;71.56;97110.56;5074514;28;20735;-66
2021/10/12 06:01:41;;;;;;;30.43;16.23;;;;;;;11.26;71.38;97104.34;5074971;28;20466;-66
2021/10/12 06:04:07;;;;;;;35.00;20.50;;;;;;;11.26;71.28;97112.22;5074878;28;20425;-66
2021/10/12 06:06:33;;;;;;;28.20;17.40;;;;;;;11.09;72.02;97101.66;5074897;28;20210;-66
2021/10/12 06:08:59;;;;;;;26.70;16.97;;;;;;;11.01;72.31;97104.25;5058011;28;20461;-67
2021/10/12 06:11:25;;;;;;;29.00;16.60;;;;;;;11.21;71.89;97105.63;5074095;28;20669;-67
2021/10/12 06:13:52;;;;;;;28.43;15.97;;;;;;;11.00;72.60;97106.06;5074038;28;20181;-67
2021/10/12 06:16:18;;;;;;;28.97;16.43;;;;;;;10.78;73.82;97102.19;5058470;28;20236;-66
2021/10/12 06:18:43;;;;;;;30.73;16.00;;;;;;;11.18;72.42;97103.34;5070126;28;20907;-65
2021/10/12 06:21:10;;;;;;;29.70;17.40;;;;;;;11.22;72.57;97101.22;5071824;28;20221;-66
2021/10/12 06:23:35;;;;;;;28.60;16.83;;;;;;;11.14;73.01;97103.84;5068975;28;20193;-67
2021/10/12 06:26:01;;;;;;;26.17;15.80;;;;;;;11.13;72.74;97103.00;5073848;28;20424;-68
2021/10/12 06:28:28;;;;;;;25.53;15.77;;;;;;;11.08;73.04;97110.53;5073883;28;20189;-66
2021/10/12 06:30:53;;;;;;;26.50;15.33;;;;;;;11.04;72.51;97103.97;5072441;28;20209;-67
2021/10/12 06:33:19;;;;;;;33.77;16.17;;;;;;;11.00;73.61;97107.88;5074330;28;20799;-66
2021/10/12 06:35:45;;;;;;;23.70;16.00;;;;;;;10.96;73.36;97111.78;5073864;28;20649;-67
2021/10/12 06:38:11;;;;;;;24.37;14.33;;;;;;;11.11;73.01;97112.81;5073503;28;20548;-65
2021/10/12 06:40:37;;;;;;;28.47;15.50;;;;;;;11.15;72.74;97116.78;5057167;28;20533;-67
2021/10/12 06:43:03;;;;;;;25.90;15.20;;;;;;;11.12;72.90;97114.47;5073803;28;20531;-68
2021/10/12 06:45:29;;;;;;;30.80;15.27;;;;;;;11.08;73.14;97115.78;5062360;28;20436;-67
2021/10/12 06:47:54;;;;;;;28.73;15.47;;;;;;;11.05;73.09;97116.09;5074155;28;20186;-65
2021/10/12 06:50:21;;;;;;;29.30;16.10;;;;;;;11.25;72.63;97108.78;5074531;28;20934;-67
2021/10/12 06:52:47;;;;;;;25.93;16.10;;;;;;;11.18;72.95;97119.09;5073858;28;20221;-66
2021/10/12 06:55:17;;;;;;;28.23;14.63;;;;;;;11.32;72.56;97106.34;5075729;28;20816;-66
2021/10/12 06:57:43;;;;;;;25.23;15.50;;;;;;;11.42;71.95;97108.81;5074084;28;20205;-66
2021/10/12 07:00:13;;;;;;;22.00;14.13;;;;;;;10.82;73.81;97106.16;5070184;28;20471;-66
2021/10/12 07:02:39;;;;;;;21.47;13.27;;;;;;;11.33;72.08;97106.19;5066726;28;20771;-66
2021/10/12 07:05:05;;;;;;;24.23;13.13;;;;;;;11.39;71.95;97109.16;5073129;28;20421;-66
2021/10/12 07:07:31;;;;;;;20.07;12.93;;;;;;;11.36;71.66;97110.28;5073283;28;20429;-66
2021/10/12 07:09:58;;;;;;;21.60;11.87;;;;;;;11.13;72.52;97104.81;5065035;28;20183;-67
2021/10/12 07:12:24;;;;;;;18.23;11.47;;;;;;;10.86;72.31;97110.09;5065235;28;20448;-67
2021/10/12 07:14:49;;;;;;;17.50;11.60;;;;;;;11.19;71.63;97114.66;5061638;28;20434;-66
2021/10/12 07:17:15;;;;;;;17.40;11.70;;;;;;;11.30;71.55;97108.31;5067836;28;20257;-67
2021/10/12 07:19:40;;;;;;;21.40;11.73;;;;;;;11.08;72.55;97113.16;5072446;28;20189;-66
2021/10/12 07:22:06;;;;;;;22.03;12.43;;;;;;;10.86;72.65;97117.16;5067844;28;20600;-67
2021/10/12 07:24:32;;;;;;;22.83;11.07;;;;;;;10.91;72.67;97120.09;5065065;28;20182;-66
2021/10/12 07:26:57;;;;;;;17.87;10.80;;;;;;;11.18;72.00;97115.63;5056503;28;20257;-68
2021/10/12 07:29:23;;;;;;;20.13;11.00;;;;;;;11.16;71.22;97115.81;5073032;28;20243;-67
2021/10/12 07:31:49;;;;;;;16.53;11.00;;;;;;;11.15;71.22;97114.16;5073142;28;20545;-66
2021/10/12 07:34:14;;;;;;;22.77;12.90;;;;;;;10.82;72.44;97114.03;5057485;28;20190;-68
2021/10/12 07:36:40;;;;;;;23.00;12.50;;;;;;;11.08;72.09;97126.28;5072475;28;20650;-66
2021/10/12 07:39:07;;;;;;;22.10;12.77;;;;;;;11.37;71.09;97120.63;5077502;28;20641;-67
2021/10/12 07:41:33;;;;;;;18.57;12.13;;;;;;;11.45;70.59;97114.59;5071849;28;20220;-66
2021/10/12 07:43:59;;;;;;;18.00;11.00;;;;;;;11.30;70.72;97113.56;5087710;28;20440;-66
2021/10/12 07:46:25;;;;;;;18.10;10.30;;;;;;;11.11;71.61;97125.94;5062604;28;20424;-65
2021/10/12 07:48:53;;;;;;;18.10;10.43;;;;;;;11.18;71.45;97119.09;5085029;28;20261;-66
2021/10/12 07:51:19;;;;;;;16.23;9.97;;;;;;;11.16;71.52;97115.81;5070068;28;20453;-68
2021/10/12 07:53:45;;;;;;;13.87;9.40;;;;;;;11.22;71.54;97114.34;5083813;28;20485;-66
2021/10/12 07:56:17;;;;;;;17.80;9.60;;;;;;;11.17;71.84;97120.06;5064781;28;20538;-66
2021/10/12 07:58:43;;;;;;;20.63;10.77;;;;;;;11.43;72.11;97113.09;5082119;28;20179;-66
2021/10/12 08:01:09;;;;;;;17.10;10.13;;;;;;;11.36;71.79;97112.91;5074064;28;20519;-67
2021/10/12 08:03:35;;;;;;;14.63;9.40;;;;;;;11.42;71.64;97108.81;5057180;28;20436;-65
2021/10/12 08:06:00;;;;;;;14.90;9.67;;;;;;;11.25;71.76;97113.22;5048484;28;20183;-66
2021/10/12 08:08:26;;;;;;;16.27;8.90;;;;;;;11.27;71.72;97100.75;5038306;28;20243;-66
2021/10/12 08:10:53;;;;;;;16.27;9.60;;;;;;;11.37;70.94;97096.19;5071337;28;20848;-67
2021/10/12 08:13:21;;;;;;;16.67;8.60;;;;;;;11.10;71.39;97087.56;5071079;28;20193;-67
2021/10/12 08:15:51;;;;;;;15.30;9.00;;;;;;;11.41;71.45;97087.03;5060275;28;20531;-67
2021/10/12 08:18:18;;;;;;;12.60;8.57;;;;;;;12.06;69.78;97080.22;5066081;28;20508;-67
2021/10/12 08:20:44;;;;;;;13.03;9.57;;;;;;;12.30;69.09;97083.81;5071774;28;20467;-66
2021/10/12 08:23:10;;;;;;;14.20;8.93;;;;;;;12.45;67.93;97081.34;5063475;28;20429;-66
2021/10/12 08:25:36;;;;;;;11.70;8.60;;;;;;;12.54;66.88;97084.78;5071991;28;20436;-66
2021/10/12 08:28:01;;;;;;;13.20;8.80;;;;;;;12.44;66.99;97092.84;5071535;28;20186;-66
2021/10/12 08:30:27;;;;;;;14.90;8.80;;;;;;;12.13;67.36;97098.78;5060699;28;20171;-66
2021/10/12 08:32:55;;;;;;;13.00;8.63;;;;;;;12.50;66.67;97083.47;5061576;28;20768;-66
2021/10/12 08:35:21;;;;;;;14.67;9.97;;;;;;;12.17;66.99;97088.75;5072785;28;20570;-65
2021/10/12 08:37:47;;;;;;;12.17;8.00;;;;;;;12.29;66.59;97090.88;5071391;28;20435;-66
2021/10/12 08:40:14;;;;;;;16.47;8.33;;;;;;;12.50;66.71;97081.66;5071802;28;20198;-66
2021/10/12 08:42:46;;;;;;;15.80;9.50;;;;;;;12.56;66.95;97086.22;5071770;28;20198;-66
2021/10/12 08:45:14;;;;;;;14.20;9.10;;;;;;;12.72;66.82;97080.13;5059571;28;20821;-67
2021/10/12 08:47:40;;;;;;;11.00;7.77;;;;;;;12.63;66.24;97067.97;5071149;28;20417;-67
2021/10/12 08:50:08;;;;;;;13.33;8.43;;;;;;;12.73;65.38;97065.97;5071458;28;20752;-66
2021/10/12 08:52:34;;;;;;;13.00;8.60;;;;;;;13.01;65.27;97073.44;5071436;28;20585;-66
2021/10/12 08:54:59;;;;;;;14.03;8.47;;;;;;;13.04;64.78;97077.56;5069948;28;20420;-67
2021/10/12 08:57:30;;;;;;;11.07;7.67;;;;;;;13.17;63.97;97077.81;5071378;28;20178;-67
2021/10/12 08:59:57;;;;;;;10.87;6.83;;;;;;;13.34;63.35;97073.31;5071090;28;20217;-66
2021/10/12 09:02:27;;;;;;;12.53;7.33;;;;;;;13.02;65.10;97076.91;5071429;28;20813;-66
2021/10/12 09:04:52;;;;;;;11.97;7.20;;;;;;;13.24;64.19;97080.56;5040027;28;20446;-67
2021/10/12 09:07:26;;;;;;;10.80;7.77;;;;;;;13.40;63.55;97081.50;5063674;28;20940;-67
2021/10/12 09:09:53;;;;;;;18.87;8.87;;;;;;;13.56;63.24;97076.16;5049118;28;20168;-66
2021/10/12 09:12:39;;;;;;;11.43;8.20;;;;;;;13.49;64.35;97075.19;5070744;28;20442;-66
2021/10/12 09:15:05;;;;;;;19.17;8.03;;;;;;;13.44;64.06;97067.81;5058343;28;20414;-66
2021/10/12 09:17:33;;;;;;;14.10;7.80;;;;;;;12.95;65.35;97068.88;5065192;28;20420;-66
2021/10/12 09:20:00;;;;;;;14.13;8.80;;;;;;;12.90;65.93;97066.75;5070615;28;20509;-67
2021/10/12 09:22:25;;;;;;;12.80;8.97;;;;;;;13.32;65.25;97062.13;5070047;28;20444;-66
2021/10/12 09:24:51;;;;;;;14.10;9.40;;;;;;;13.55;64.59;97063.97;5070352;28;20420;-66
2021/10/12 09:27:19;;;;;;;18.57;8.43;;;;;;;13.63;64.15;97060.47;5070300;28;20178;-66
2021/10/12 09:29:49;;;;;;;20.13;9.53;;;;;;;13.47;64.86;97056.97;5070768;28;20182;-66
2021/10/12 09:32:15;;;;;;;12.00;8.43;;;;;;;13.70;64.01;97061.41;5063549;28;20434;-66
2021/10/12 09:34:44;;;;;;;14.30;7.63;;;;;;;14.22;62.81;97049.31;5061783;28;20416;-66
2021/10/12 09:37:10;;;;;;;18.63;10.50;;;;;;;14.00;63.85;97048.34;5070179;28;20436;-66
2021/10/12 09:39:42;;;;;;;20.40;9.20;;;;;;;14.31;61.69;97051.84;5070726;28;20757;-68
2021/10/12 09:42:11;;;;;;;10.97;8.03;;;;;;;14.62;60.58;97035.06;5063862;28;20448;-67
2021/10/12 09:44:38;;;;;;;10.67;7.67;;;;;;;14.38;61.37;97039.59;5051193;28;20532;-67
2021/10/12 09:47:13;;;;;;;10.20;7.03;;;;;;;14.20;61.55;97034.66;5067200;28;20412;-66
2021/10/12 09:49:39;;;;;;;11.23;7.87;;;;;;;14.50;60.43;97017.03;5052993;28;20424;-67
2021/10/12 09:52:06;;;;;;;12.70;8.07;;;;;;;13.69;62.47;97028.16;5069244;28;20527;-67
2021/10/12 09:54:56;;;;;;;11.50;7.43;;;;;;;13.79;62.52;97022.66;5058596;28;20426;-67
2021/10/12 09:57:24;;;;;;;22.90;8.63;;;;;;;13.70;63.09;97018.47;5055181;28;20532;-66
2021/10/12 09:59:50;;;;;;;12.87;9.20;;;;;;;13.62;64.00;97020.16;5070538;28;20420;-67
2021/10/12 10:02:18;;;;;;;16.00;8.97;;;;;;;13.53;63.96;97018.56;5070423;28;20436;-67
2021/10/12 10:04:44;;;;;;;12.50;8.50;;;;;;;13.84;63.41;97015.06;5063315;28;20404;-66
2021/10/12 10:07:15;;;;;;;13.70;8.43;;;;;;;13.96;63.26;97008.38;5071502;28;20884;-65
2021/10/12 10:09:42;;;;;;;8.90;7.13;;;;;;;13.82;63.10;97001.25;5069227;28;20915;-67
2021/10/12 10:12:08;;;;;;;7.80;6.70;;;;;;;13.49;63.96;97009.38;5068602;28;20982;-67
2021/10/12 10:14:34;;;;;;;7.20;6.30;;;;;;;13.64;62.17;96999.72;5062657;28;20925;-66
2021/10/12 10:17:00;;;;;;;7.10;6.13;;;;;;;13.66;62.11;97008.28;5057922;28;20421;-67
2021/10/12 10:19:28;;;;;;;8.93;5.87;;;;;;;13.42;62.12;97006.63;5055690;28;20423;-66
2021/10/12 10:21:54;;;;;;;11.90;6.33;;;;;;;13.94;61.60;96999.81;5061772;28;20469;-65
2021/10/12 10:24:39;;;;;;;7.93;5.83;;;;;;;14.14;60.73;97001.94;5070710;28;20486;-66
2021/10/12 10:27:05;;;;;;;11.77;6.27;;;;;;;14.24;60.61;96997.22;5072478;28;20201;-66
2021/10/12 10:29:36;;;;;;;9.00;5.47;;;;;;;14.04;60.36;96998.75;5073740;28;20841;-67
2021/10/12 10:32:14;;;;;;;10.17;5.43;;;;;;;13.97;60.55;96988.94;5074516;28;20506;-66
2021/10/12 10:34:44;;;;;;;14.73;6.40;;;;;;;14.08;60.59;96984.22;5075015;28;20417;-67
2021/10/12 10:37:16;;;;;;;12.30;5.87;;;;;;;14.04;60.59;96969.75;5073660;28;20436;-64
2021/10/12 10:39:45;;;;;;;9.70;5.23;;;;;;;14.20;58.92;96969.59;5073986;28;20413;-67
2021/10/12 10:42:26;;;;;;;9.90;5.80;;;;;;;14.21;59.10;96967.75;5073445;28;20511;-66
2021/10/12 10:45:02;;;;;;;14.23;7.60;;;;;;;14.48;59.55;96963.69;5045328;28;20449;-66
2021/10/12 10:47:39;;;;;;;10.77;5.80;;;;;;;14.44;59.44;96962.41;5072753;28;20424;-66
2021/10/12 10:50:24;;;;;;;9.80;5.30;;;;;;;14.67;59.25;96966.75;5073774;28;20786;-67
2021/10/12 10:52:52;;;;;;;8.13;5.80;;;;;;;14.57;59.15;96973.13;5073484;28;20451;-66
2021/10/12 10:55:24;;;;;;;12.57;5.57;;;;;;;14.27;59.30;96957.31;5074283;28;20429;-65
2021/10/12 10:58:12;;;;;;;14.23;6.40;;;;;;;14.13;60.55;96950.22;5073403;28;20507;-66
2021/10/12 11:00:39;;;;;;;13.50;5.40;;;;;;;14.28;58.96;96943.13;5073676;28;20966;-65
2021/10/12 11:03:06;;;;;;;7.83;4.47;;;;;;;13.98;58.52;96956.31;5074338;28;20769;-66
2021/10/12 11:05:40;;;;;;;12.30;5.10;;;;;;;13.65;58.95;96938.19;5074497;28;20409;-66
2021/10/12 11:08:16;;;;;;;7.93;5.23;;;;;;;13.28;60.71;96946.84;5065042;28;20994;-68
2021/10/12 11:10:44;;;;;;;12.23;6.07;;;;;;;13.33;61.45;96944.50;5071920;28;20470;-65
2021/10/12 11:13:11;;;;;;;8.73;5.80;;;;;;;12.98;63.96;96942.25;5068631;28;20443;-68
2021/10/12 11:15:48;;;;;;;7.43;5.70;;;;;;;13.65;62.49;96937.38;5043913;28;20425;-67
2021/10/12 11:18:13;;;;;;;12.23;6.83;;;;;;;13.08;63.55;96935.97;5062829;28;20408;-66